createdAt,value
2019-03-24T04:46:41.456Z,62.73
2019-03-24T04:49:12.308Z,68.73
2019-03-24T04:51:43.232Z,64.97
2019-03-24T04:54:14.060Z,68.40
2019-03-24T04:56:44.943Z,81.03
2019-03-24T04:59:15.803Z,70.10
2019-03-24T05:01:46.741Z,72.40
2019-03-24T05:04:17.686Z,71.17
2019-03-24T05:06:48.790Z,66.93
2019-03-24T05:09:19.861Z,68.10
2019-03-24T05:11:50.732Z,70.50
2019-03-24T05:14:21.583Z,69.57
2019-03-24T05:16:52.447Z,67.10
2019-03-24T05:19:23.305Z,66.23
2019-03-24T05:21:54.190Z,75.33
2019-03-24T05:24:25.022Z,70.70
2019-03-24T05:26:55.875Z,68.67
2019-03-24T05:29:26.721Z,65.30
2019-03-24T05:31:57.591Z,67.33
2019-03-24T05:34:28.423Z,66.53
2019-03-24T05:36:59.361Z,66.17
2019-03-24T05:39:30.194Z,66.47
2019-03-24T05:42:01.077Z,61.23
2019-03-24T05:44:31.944Z,66.20
2019-03-24T05:47:02.869Z,63.27
2019-03-24T05:49:33.714Z,63.17
2019-03-24T05:52:04.596Z,69.83
2019-03-24T05:54:35.431Z,70.07
2019-03-24T05:57:06.289Z,63.67
2019-03-24T05:59:37.134Z,69.43
2019-03-24T06:02:07.994Z,70.53
2019-03-24T06:04:38.901Z,65.40
2019-03-24T06:07:09.774Z,71.47
2019-03-24T06:09:40.612Z,71.47
2019-03-24T06:12:11.510Z,82.27
2019-03-24T06:14:42.391Z,85.77
2019-03-24T06:17:13.246Z,84.90
2019-03-24T06:19:44.080Z,80.83
2019-03-24T06:22:14.998Z,78.60
2019-03-24T06:24:45.967Z,82.57
2019-03-24T06:27:16.901Z,78.30
2019-03-24T06:29:47.762Z,79.47
2019-03-24T06:32:18.649Z,85.53
2019-03-24T06:34:49.497Z,78.87
2019-03-24T06:37:20.400Z,92.47
2019-03-24T06:39:51.359Z,80.97
2019-03-24T06:42:23.352Z,77.00
2019-03-24T06:44:55.914Z,83.33
2019-03-24T06:47:28.456Z,81.83
2019-03-24T06:50:01.339Z,82.47
2019-03-24T06:52:32.583Z,81.33
2019-03-24T06:55:03.437Z,79.73
2019-03-24T06:57:34.302Z,72.53
2019-03-24T07:00:05.873Z,74.77
2019-03-24T07:02:36.797Z,75.87
2019-03-24T07:05:08.243Z,83.93
2019-03-24T07:07:39.131Z,87.00
2019-03-24T07:10:10.397Z,85.17
2019-03-24T07:12:41.364Z,84.20
2019-03-24T07:15:12.399Z,79.20
2019-03-24T07:17:43.387Z,80.10
2019-03-24T07:20:14.347Z,80.80
2019-03-24T07:22:45.250Z,77.53
2019-03-24T07:25:16.195Z,77.40
2019-03-24T07:27:47.016Z,80.83
2019-03-24T07:30:18.428Z,82.73
2019-03-24T07:32:49.420Z,83.40
2019-03-24T07:35:20.442Z,78.23
2019-03-24T07:37:51.426Z,87.83
2019-03-24T07:40:26.088Z,91.83
2019-03-24T07:42:57.703Z,92.03
2019-03-24T07:45:34.208Z,83.63
2019-03-24T07:48:19.048Z,76.67
2019-03-24T07:50:46.205Z,78.40
2019-03-24T07:53:23.045Z,72.73
2019-03-24T07:56:06.813Z,75.13
2019-03-24T07:58:42.368Z,70.57
2019-03-24T08:01:14.348Z,73.67
2019-03-24T08:03:45.725Z,68.43
2019-03-24T08:06:17.385Z,66.60
2019-03-24T08:08:49.436Z,63.77
2019-03-24T08:11:21.283Z,65.27
2019-03-24T08:13:55.041Z,63.77
2019-03-24T08:16:25.955Z,62.27
2019-03-24T08:18:56.789Z,65.67
2019-03-24T08:21:27.665Z,65.87
2019-03-24T08:23:59.067Z,69.07
2019-03-24T08:26:29.965Z,68.07
2019-03-24T08:29:01.075Z,69.23
2019-03-24T08:31:32.200Z,66.77
2019-03-24T08:34:06.859Z,66.03
2019-03-24T08:36:39.833Z,68.47
2019-03-24T08:39:14.642Z,70.40
2019-03-24T08:41:46.817Z,74.10
2019-03-24T08:44:19.447Z,73.40
2019-03-24T08:46:50.898Z,69.47
2019-03-24T08:49:22.090Z,76.70
2019-03-24T08:51:53.941Z,73.80
2019-03-24T08:54:24.864Z,73.57
2019-03-24T08:57:08.597Z,67.53
2019-03-24T08:59:37.658Z,66.83
2019-03-24T09:02:08.883Z,68.27
2019-03-24T09:04:50.952Z,63.60
2019-03-24T09:07:22.050Z,68.70
2019-03-24T09:09:52.978Z,61.70
2019-03-24T09:12:25.957Z,70.23
2019-03-24T09:14:57.080Z,66.70
2019-03-24T09:17:27.975Z,64.47
2019-03-24T09:19:58.833Z,57.73
2019-03-24T09:22:29.739Z,57.97
2019-03-24T09:25:00.743Z,55.40
2019-03-24T09:27:31.586Z,56.80
2019-03-24T09:30:02.496Z,66.00
2019-03-24T09:32:33.349Z,58.90
2019-03-24T09:35:04.936Z,54.47
2019-03-24T09:37:35.852Z,53.70
2019-03-24T09:40:09.041Z,59.17
2019-03-24T09:42:39.924Z,60.37
2019-03-24T09:45:12.159Z,58.23
2019-03-24T09:47:42.988Z,57.63
2019-03-24T09:50:14.326Z,54.27
2019-03-24T09:52:45.536Z,54.07
2019-03-24T09:55:16.934Z,48.73
2019-03-24T09:57:48.909Z,55.70
2019-03-24T10:00:20.404Z,52.00
2019-03-24T10:02:51.578Z,51.83
2019-03-24T10:05:22.629Z,50.70
2019-03-24T10:07:53.873Z,51.60
2019-03-24T10:10:24.941Z,52.33
2019-03-24T10:12:55.843Z,48.90
2019-03-24T10:15:26.880Z,50.97
2019-03-24T10:17:58.816Z,56.57
2019-03-24T10:20:31.640Z,52.80
2019-03-24T10:23:02.933Z,47.53
2019-03-24T10:25:34.734Z,48.10
2019-03-24T10:28:05.980Z,49.40
2019-03-24T10:30:37.353Z,50.83
2019-03-24T10:33:08.614Z,55.53
2019-03-24T10:35:49.569Z,76.07
2019-03-24T10:38:22.783Z,59.27
2019-03-24T10:40:53.746Z,53.27
2019-03-24T10:43:24.633Z,51.13
2019-03-24T10:45:55.530Z,51.50
2019-03-24T10:48:33.615Z,53.70
2019-03-24T10:51:01.689Z,52.60
2019-03-24T10:53:33.773Z,49.27
2019-03-24T10:56:04.641Z,53.03
2019-03-24T10:58:35.537Z,52.87
2019-03-24T11:01:06.392Z,53.03
2019-03-24T11:03:37.294Z,53.27
2019-03-24T11:06:08.234Z,50.90
2019-03-24T11:08:39.156Z,52.33
2019-03-24T11:11:10.023Z,53.87
2019-03-24T11:13:40.902Z,49.20
2019-03-24T11:16:11.941Z,49.70
2019-03-24T11:18:42.801Z,48.70
2019-03-24T11:21:13.659Z,50.50
2019-03-24T11:23:44.526Z,48.50
2019-03-24T11:26:15.466Z,52.70
2019-03-24T11:28:46.268Z,52.17
2019-03-24T11:31:17.140Z,49.87
2019-03-24T11:33:48.018Z,46.00
2019-03-24T11:36:18.845Z,51.00
2019-03-24T11:38:49.715Z,49.13
2019-03-24T11:41:23.396Z,44.93
2019-03-24T11:43:54.450Z,48.37
2019-03-24T11:46:25.289Z,46.50
2019-03-24T11:48:56.170Z,43.43
2019-03-24T11:51:27.049Z,43.33
2019-03-24T11:53:57.934Z,44.23
2019-03-24T11:56:28.805Z,41.97
2019-03-24T11:58:59.732Z,47.93
2019-03-24T12:01:38.193Z,43.53
2019-03-24T12:04:06.124Z,44.53
2019-03-24T12:06:40.480Z,46.23
2019-03-24T12:09:12.353Z,45.93
2019-03-24T12:11:48.544Z,41.57
2019-03-24T12:14:19.389Z,40.47
2019-03-24T12:16:50.259Z,37.30
2019-03-24T12:19:23.121Z,38.73
2019-03-24T12:21:54.640Z,37.23
2019-03-24T12:24:26.444Z,39.43
2019-03-24T12:27:01.455Z,39.93
2019-03-24T12:29:34.217Z,33.17
2019-03-24T12:32:07.214Z,33.50
2019-03-24T12:34:38.198Z,38.43
2019-03-24T12:37:10.111Z,32.37
2019-03-24T12:39:41.933Z,33.53
2019-03-24T12:42:13.414Z,33.40
2019-03-24T12:44:44.483Z,35.70
2019-03-24T12:47:16.406Z,34.13
2019-03-24T12:49:50.434Z,33.77
2019-03-24T12:52:23.566Z,32.20
2019-03-24T12:54:56.237Z,34.30
2019-03-24T12:57:27.632Z,31.97
2019-03-24T12:59:59.099Z,31.07
2019-03-24T13:02:31.388Z,34.97
2019-03-24T13:05:07.452Z,35.73
2019-03-24T13:07:39.484Z,31.30
2019-03-24T13:10:12.218Z,35.90
2019-03-24T13:12:44.925Z,33.47
2019-03-24T13:15:16.534Z,36.40
2019-03-24T13:17:48.094Z,37.27
2019-03-24T13:20:33.799Z,37.50
2019-03-24T13:22:53.982Z,35.63
2019-03-24T13:25:25.711Z,38.10
2019-03-24T13:27:56.908Z,37.67
2019-03-24T13:30:27.909Z,34.43
2019-03-24T13:32:58.798Z,36.03
2019-03-24T13:35:29.696Z,34.87
2019-03-24T13:38:01.377Z,32.13
2019-03-24T13:40:32.293Z,35.53
2019-03-24T13:43:03.431Z,37.93
2019-03-24T13:45:34.463Z,37.77
2019-03-24T13:48:05.306Z,36.90
2019-03-24T13:50:36.349Z,32.00
2019-03-24T13:53:07.370Z,33.77
2019-03-24T13:55:38.404Z,39.13
2019-03-24T13:58:12.007Z,32.93
2019-03-24T14:00:42.677Z,34.73
2019-03-24T14:03:14.499Z,42.13
2019-03-24T14:05:45.492Z,37.40
2019-03-24T14:08:16.431Z,33.60
2019-03-24T14:10:47.643Z,31.53
2019-03-24T14:13:18.549Z,37.37
2019-03-24T14:15:49.489Z,36.30
2019-03-24T14:18:20.357Z,39.23
2019-03-24T14:20:51.293Z,39.90
2019-03-24T14:23:22.136Z,33.33
2019-03-24T14:25:53.017Z,35.13
2019-03-24T14:28:23.886Z,35.00
2019-03-24T14:30:54.868Z,35.13
2019-03-24T14:33:25.676Z,29.27
2019-03-24T14:35:56.575Z,33.73
2019-03-24T14:38:27.432Z,31.87
2019-03-24T14:40:58.384Z,31.53
2019-03-24T14:43:29.283Z,35.07
2019-03-24T14:46:00.198Z,33.03
2019-03-24T14:48:31.059Z,31.50
2019-03-24T14:51:01.955Z,32.97
2019-03-24T14:53:32.839Z,31.77
2019-03-24T14:56:03.766Z,34.53
2019-03-24T14:58:34.645Z,29.60
2019-03-24T15:01:05.755Z,27.70
2019-03-24T15:03:36.911Z,28.77
2019-03-24T15:06:09.487Z,24.97
2019-03-24T15:08:40.468Z,27.43
2019-03-24T15:11:11.840Z,29.13
2019-03-24T15:13:43.176Z,32.03
2019-03-24T15:16:14.363Z,34.63
2019-03-24T15:18:47.125Z,31.40
2019-03-24T15:21:19.045Z,26.97
2019-03-24T15:23:51.813Z,27.27
2019-03-24T15:26:22.767Z,25.30
2019-03-24T15:28:57.325Z,26.83
2019-03-24T15:31:33.748Z,22.70
2019-03-24T15:34:06.473Z,26.90
2019-03-24T15:36:38.792Z,22.97
2019-03-24T15:39:12.014Z,21.60
2019-03-24T15:41:43.677Z,22.43
2019-03-24T15:44:15.078Z,25.00
2019-03-24T15:46:46.611Z,22.87
2019-03-24T15:49:19.032Z,22.63
2019-03-24T15:51:50.187Z,22.33
2019-03-24T15:54:23.094Z,20.70
2019-03-24T15:56:54.443Z,25.07
2019-03-24T15:59:25.935Z,22.13
2019-03-24T16:01:58.692Z,26.17
2019-03-24T16:04:30.844Z,24.90
2019-03-24T16:07:02.488Z,22.37
2019-03-24T16:09:34.759Z,23.27
2019-03-24T16:12:07.445Z,23.30
2019-03-24T16:14:38.457Z,22.70
2019-03-24T16:17:11.267Z,23.13
2019-03-24T16:19:42.465Z,31.13
2019-03-24T16:22:13.478Z,26.93
2019-03-24T16:24:44.635Z,23.33
2019-03-24T16:27:15.727Z,28.20
2019-03-24T16:29:46.821Z,24.80
2019-03-24T16:32:18.252Z,25.07
2019-03-24T16:34:49.548Z,26.40
2019-03-24T16:37:21.060Z,28.10
2019-03-24T16:39:52.194Z,39.03
2019-03-24T16:42:23.178Z,27.47
2019-03-24T16:44:54.425Z,26.63
2019-03-24T16:47:25.506Z,20.60
2019-03-24T16:50:16.455Z,26.57
2019-03-24T16:53:04.435Z,24.70
2019-03-24T16:55:38.436Z,24.47
2019-03-24T16:58:11.313Z,22.73
2019-03-24T17:00:45.642Z,22.13
2019-03-24T17:03:20.524Z,23.57
2019-03-24T17:05:51.052Z,24.37
2019-03-24T17:08:22.000Z,25.07
2019-03-24T17:10:53.083Z,23.43
2019-03-24T17:13:24.098Z,24.63
2019-03-24T17:15:55.111Z,24.40
2019-03-24T17:18:26.140Z,31.17
2019-03-24T17:20:57.180Z,62.97
2019-03-24T17:23:28.337Z,31.90
2019-03-24T17:26:00.192Z,40.00
2019-03-24T17:28:31.131Z,29.70
2019-03-24T17:31:02.252Z,28.37
2019-03-24T17:33:33.369Z,33.67
2019-03-24T17:36:06.702Z,30.47
2019-03-24T17:38:37.559Z,29.33
2019-03-24T17:41:08.864Z,34.67
2019-03-24T17:43:41.523Z,39.93
2019-03-24T17:46:12.639Z,36.23
2019-03-24T17:48:44.621Z,34.17
2019-03-24T17:51:15.776Z,37.47
2019-03-24T17:53:50.155Z,36.87
2019-03-24T17:56:25.893Z,35.60
2019-03-24T17:58:59.262Z,35.03
2019-03-24T18:01:31.035Z,33.70
2019-03-24T18:04:06.446Z,32.23
2019-03-24T18:06:37.979Z,33.67
2019-03-24T18:09:09.921Z,32.07
2019-03-24T18:11:41.053Z,34.13
2019-03-24T18:14:12.033Z,36.63
2019-03-24T18:16:42.885Z,32.97
2019-03-24T18:19:13.787Z,33.37
2019-03-24T18:21:44.621Z,31.47
2019-03-24T18:24:17.298Z,31.93
2019-03-24T18:26:48.216Z,34.20
2019-03-24T18:29:19.176Z,31.40
2019-03-24T18:31:50.069Z,36.97
2019-03-24T18:34:20.926Z,32.27
2019-03-24T18:36:51.943Z,31.13
2019-03-24T18:39:22.905Z,34.97
2019-03-24T18:41:54.016Z,29.83
2019-03-24T18:44:24.871Z,26.33
2019-03-24T18:46:56.267Z,26.20
2019-03-24T18:49:27.613Z,25.60
2019-03-24T18:51:59.207Z,27.27
2019-03-24T18:54:30.269Z,28.00
2019-03-24T18:57:01.935Z,25.67
2019-03-24T18:59:33.506Z,23.87
2019-03-24T19:02:04.646Z,25.70
2019-03-24T19:04:38.919Z,24.13
2019-03-24T19:07:10.287Z,29.07
2019-03-24T19:09:41.272Z,28.03
2019-03-24T19:12:12.598Z,23.93
2019-03-24T19:14:47.529Z,29.40
2019-03-24T19:17:19.581Z,25.17
2019-03-24T19:19:50.460Z,31.50
2019-03-24T19:22:33.075Z,35.43
2019-03-24T19:24:56.489Z,35.97
2019-03-24T19:27:29.754Z,25.10
2019-03-24T19:30:01.105Z,21.60
2019-03-24T19:32:32.711Z,21.70
2019-03-24T19:35:05.234Z,14.33
2019-03-24T19:37:36.549Z,16.10
2019-03-24T19:40:09.468Z,12.90
2019-03-24T19:42:40.645Z,13.20
2019-03-24T19:45:13.224Z,16.20
2019-03-24T19:47:44.256Z,11.23
2019-03-24T19:50:15.145Z,14.37
2019-03-24T19:52:46.120Z,14.03
2019-03-24T19:55:17.079Z,15.20
2019-03-24T19:57:48.100Z,15.67
2019-03-24T20:00:18.986Z,13.83
2019-03-24T20:02:50.203Z,15.37
2019-03-24T20:05:21.284Z,12.13
2019-03-24T20:07:52.258Z,15.67
2019-03-24T20:10:23.479Z,12.80
2019-03-24T20:12:54.432Z,13.63
2019-03-24T20:15:25.317Z,17.53
2019-03-24T20:17:56.777Z,17.30
2019-03-24T20:20:28.976Z,19.00
2019-03-24T20:22:59.886Z,19.37
2019-03-24T20:25:31.898Z,15.97
2019-03-24T20:28:02.833Z,14.63
2019-03-24T20:30:33.789Z,16.33
2019-03-24T20:33:11.624Z,17.30
2019-03-24T20:35:43.984Z,15.97
2019-03-24T20:38:15.329Z,11.20
2019-03-24T20:41:16.943Z,8.90
2019-03-24T20:43:48.015Z,12.07
2019-03-24T20:46:19.300Z,11.37
2019-03-24T20:48:50.584Z,16.50
2019-03-24T20:51:21.456Z,11.40
2019-03-24T20:53:56.174Z,16.43
2019-03-24T20:56:26.991Z,12.43
2019-03-24T20:58:58.207Z,8.73
2019-03-24T21:01:29.462Z,10.80
2019-03-24T21:04:00.962Z,12.90
2019-03-24T21:06:32.154Z,11.50
2019-03-24T21:09:13.541Z,11.57
2019-03-24T21:11:41.818Z,12.20
2019-03-24T21:14:13.641Z,14.07
2019-03-24T21:16:44.565Z,8.83
2019-03-24T21:19:15.544Z,13.50
2019-03-24T21:21:47.290Z,12.50
2019-03-24T21:24:18.251Z,11.67
2019-03-24T21:26:49.131Z,10.80
2019-03-24T21:29:23.712Z,8.20
2019-03-24T21:31:57.879Z,10.57
2019-03-24T21:34:29.112Z,8.83
2019-03-24T21:37:00.264Z,13.77
2019-03-24T21:39:31.155Z,13.47
2019-03-24T21:42:02.137Z,15.23
2019-03-24T21:44:32.921Z,13.80
2019-03-24T21:47:10.448Z,12.70
2019-03-24T21:49:41.352Z,11.80
2019-03-24T21:52:12.226Z,13.97
